createdAt,value
2022-07-28T00:00:16.603Z,101446.59
2022-07-28T00:02:45.674Z,101436.00
2022-07-28T00:05:13.365Z,101445.59
2022-07-28T00:07:42.050Z,101442.13
2022-07-28T00:10:10.903Z,101446.41
2022-07-28T00:12:39.111Z,101443.53
2022-07-28T00:15:08.310Z,101441.97
2022-07-28T00:17:35.935Z,101443.00
2022-07-28T00:20:06.363Z,101432.91
2022-07-28T00:22:34.079Z,101443.25
2022-07-28T00:25:01.679Z,101436.38
2022-07-28T00:27:29.803Z,101432.59
2022-07-28T00:29:57.377Z,101439.78
2022-07-28T00:32:24.943Z,101427.72
2022-07-28T00:34:52.889Z,101432.59
2022-07-28T00:37:22.710Z,101426.25
2022-07-28T00:39:50.794Z,101429.47
2022-07-28T00:42:19.268Z,101427.69
2022-07-28T00:44:47.160Z,101423.78
2022-07-28T00:47:14.924Z,101423.59
2022-07-28T00:49:42.557Z,101419.28
2022-07-28T00:52:11.044Z,101422.72
2022-07-28T00:54:40.211Z,101414.94
2022-07-28T00:57:07.941Z,101420.34
2022-07-28T00:59:35.714Z,101416.56
2022-07-28T01:02:03.470Z,101419.44
2022-07-28T01:04:31.334Z,101412.44
2022-07-28T01:07:18.756Z,101417.97
2022-07-28T01:09:54.231Z,101413.09
2022-07-28T01:12:31.049Z,101412.09
2022-07-28T01:15:04.633Z,101416.13
2022-07-28T01:17:39.210Z,101417.91
2022-07-28T01:20:11.081Z,101415.16
2022-07-28T01:22:41.703Z,101417.38
2022-07-28T01:25:19.452Z,101414.34
2022-07-28T01:27:54.286Z,101418.16
2022-07-28T01:30:32.520Z,101417.41
2022-07-28T01:33:02.626Z,101413.00
2022-07-28T01:35:32.688Z,101406.56
2022-07-28T01:38:03.005Z,101407.00
2022-07-28T01:40:33.387Z,101413.16
2022-07-28T01:43:04.217Z,101410.66
2022-07-28T01:45:34.267Z,101409.72
2022-07-28T01:48:04.038Z,101409.84
2022-07-28T01:50:32.377Z,101408.66
2022-07-28T01:53:00.193Z,101398.47
2022-07-28T01:55:27.944Z,101399.25
2022-07-28T01:57:56.712Z,101390.69
2022-07-28T02:00:25.635Z,101388.97
2022-07-28T02:02:57.812Z,101389.56
2022-07-28T02:05:27.330Z,101395.97
2022-07-28T02:07:57.119Z,101393.72
2022-07-28T02:10:24.914Z,101396.09
2022-07-28T02:12:53.776Z,101391.75
2022-07-28T02:15:22.261Z,101388.00
2022-07-28T02:17:50.859Z,101388.97
2022-07-28T02:20:21.051Z,101382.47
2022-07-28T02:22:52.091Z,101377.13
2022-07-28T02:25:20.414Z,101377.00
2022-07-28T02:27:50.352Z,101379.81
2022-07-28T02:30:20.247Z,101389.16
2022-07-28T02:32:50.606Z,101390.13
2022-07-28T02:35:25.934Z,101385.59
2022-07-28T02:38:02.152Z,101395.44
2022-07-28T02:40:35.812Z,101398.44
2022-07-28T02:43:04.385Z,101391.09
2022-07-28T02:45:32.953Z,101394.63
2022-07-28T02:48:04.640Z,101390.41
2022-07-28T02:50:33.623Z,101394.13
2022-07-28T02:53:14.891Z,101398.69
2022-07-28T02:55:43.902Z,101388.47
2022-07-28T02:58:12.656Z,101385.53
2022-07-28T03:00:41.345Z,101392.56
2022-07-28T03:03:09.608Z,101395.06
2022-07-28T03:05:41.061Z,101390.84
2022-07-28T03:08:08.781Z,101396.00
2022-07-28T03:10:36.410Z,101405.97
2022-07-28T03:13:05.283Z,101402.06
2022-07-28T03:15:32.997Z,101408.53
2022-07-28T03:18:00.764Z,101407.22
2022-07-28T03:20:28.480Z,101422.47
2022-07-28T03:22:58.275Z,101409.03
2022-07-28T03:25:29.805Z,101408.69
2022-07-28T03:27:59.047Z,101404.28
2022-07-28T03:30:30.346Z,101396.69
2022-07-28T03:33:00.012Z,101397.59
2022-07-28T03:35:28.025Z,101401.59
2022-07-28T03:37:59.285Z,101394.50
2022-07-28T03:40:29.523Z,101406.41
2022-07-28T03:42:58.536Z,101397.44
2022-07-28T03:45:26.302Z,101400.69
2022-07-28T03:47:55.003Z,101398.00
2022-07-28T03:50:24.073Z,101409.13
2022-07-28T03:52:51.924Z,101410.91
2022-07-28T03:55:20.971Z,101411.16
2022-07-28T03:57:48.768Z,101411.81
2022-07-28T04:00:17.326Z,101419.47
2022-07-28T04:02:45.167Z,101418.06
2022-07-28T04:05:13.344Z,101410.50
2022-07-28T04:07:41.909Z,101419.06
2022-07-28T04:10:11.276Z,101409.16
2022-07-28T04:12:50.712Z,101406.47
2022-07-28T04:15:19.185Z,101410.06
2022-07-28T04:17:48.559Z,101403.59
2022-07-28T04:20:17.266Z,101410.66
2022-07-28T04:22:45.088Z,101421.19
2022-07-28T04:25:13.865Z,101425.19
2022-07-28T04:27:41.614Z,101428.72
2022-07-28T04:30:13.333Z,101426.09
2022-07-28T04:32:41.152Z,101419.03
2022-07-28T04:35:14.032Z,101422.47
2022-07-28T04:37:44.756Z,101417.00
2022-07-28T04:40:13.506Z,101415.72
2022-07-28T04:42:41.817Z,101412.69
2022-07-28T04:45:12.671Z,101422.28
2022-07-28T04:47:40.770Z,101425.84
2022-07-28T04:50:10.057Z,101416.69
2022-07-28T04:52:38.231Z,101416.91
2022-07-28T04:55:07.315Z,101419.91
2022-07-28T04:57:35.484Z,101419.06
2022-07-28T05:00:12.205Z,101423.59
2022-07-28T05:02:43.363Z,101419.59
2022-07-28T05:05:11.798Z,101417.28
2022-07-28T05:07:40.111Z,101419.69
2022-07-28T05:10:09.873Z,101417.25
2022-07-28T05:12:37.601Z,101414.69
2022-07-28T05:15:05.372Z,101408.28
2022-07-28T05:17:32.945Z,101403.06
2022-07-28T05:20:02.537Z,101404.63
2022-07-28T05:22:42.400Z,101392.19
2022-07-28T05:25:17.547Z,101379.22
2022-07-28T05:27:45.792Z,101378.72
2022-07-28T05:30:14.522Z,101391.81
2022-07-28T05:32:42.357Z,101364.88
2022-07-28T05:35:11.765Z,101359.53
2022-07-28T05:37:39.533Z,101359.84
2022-07-28T05:40:13.655Z,101359.34
2022-07-28T05:42:41.939Z,101362.66
2022-07-28T05:45:15.046Z,101351.72
2022-07-28T05:47:46.362Z,101360.41
2022-07-28T05:50:16.026Z,101371.47
2022-07-28T05:52:44.097Z,101377.34
2022-07-28T05:55:12.098Z,101380.16
2022-07-28T05:57:40.248Z,101374.41
2022-07-28T06:00:09.712Z,101370.25
2022-07-28T06:02:38.233Z,101368.03
2022-07-28T06:05:07.133Z,101366.09
2022-07-28T06:07:43.277Z,101354.97
2022-07-28T06:10:12.361Z,101349.97
2022-07-28T06:12:41.423Z,101367.66
2022-07-28T06:15:12.906Z,101365.59
2022-07-28T06:17:40.458Z,101375.00
2022-07-28T06:20:09.586Z,101377.50
2022-07-28T06:22:45.601Z,101370.94
2022-07-28T06:25:15.044Z,101367.44
2022-07-28T06:27:42.654Z,101372.31
2022-07-28T06:30:11.089Z,101360.53
2022-07-28T06:32:38.808Z,101367.00
2022-07-28T06:35:07.559Z,101378.38
2022-07-28T06:37:35.193Z,101380.16
2022-07-28T06:40:04.774Z,101378.16
2022-07-28T06:42:32.391Z,101388.97
2022-07-28T06:45:00.271Z,101389.72
2022-07-28T06:47:28.097Z,101395.31
2022-07-28T06:49:55.757Z,101388.69
2022-07-28T06:52:23.421Z,101396.28
2022-07-28T06:54:52.265Z,101390.78
2022-07-28T06:57:22.939Z,101392.34
2022-07-28T07:00:01.243Z,101400.56
2022-07-28T07:02:28.815Z,101392.97
2022-07-28T07:04:56.425Z,101391.97
2022-07-28T07:07:25.050Z,101382.34
2022-07-28T07:09:52.704Z,101387.13
2022-07-28T07:12:22.175Z,101388.19
2022-07-28T07:14:49.777Z,101389.69
2022-07-28T07:17:17.450Z,101385.50
2022-07-28T07:19:45.117Z,101382.94
2022-07-28T07:22:14.582Z,101384.56
2022-07-28T07:24:42.240Z,101389.53
2022-07-28T07:27:09.895Z,101380.81
2022-07-28T07:29:38.938Z,101377.69
2022-07-28T07:32:10.553Z,101374.06
2022-07-28T07:34:39.355Z,101379.34
2022-07-28T07:37:07.558Z,101370.38
2022-07-28T07:39:35.157Z,101375.09
2022-07-28T07:42:02.763Z,101371.50
2022-07-28T07:44:30.720Z,101377.72
2022-07-28T07:46:59.664Z,101376.22
2022-07-28T07:49:44.964Z,101372.03
2022-07-28T07:52:14.066Z,101376.75
2022-07-28T07:54:41.729Z,101376.88
2022-07-28T07:57:09.691Z,101371.28
2022-07-28T07:59:37.362Z,101377.41
2022-07-28T08:02:06.992Z,101374.53
2022-07-28T08:04:37.085Z,101367.63
2022-07-28T08:07:05.696Z,101366.78
2022-07-28T08:09:33.844Z,101365.34
2022-07-28T08:12:01.463Z,101364.72
2022-07-28T08:14:29.090Z,101356.19
2022-07-28T08:16:59.099Z,101365.28
2022-07-28T08:19:28.096Z,101354.78
2022-07-28T08:21:56.351Z,101349.50
2022-07-28T08:24:32.929Z,101348.81
2022-07-28T08:27:02.158Z,101362.66
2022-07-28T08:29:29.803Z,101343.28
2022-07-28T08:31:57.626Z,101348.44
2022-07-28T08:34:29.889Z,101339.53
2022-07-28T08:37:04.236Z,101350.88
2022-07-28T08:39:32.264Z,101346.78
2022-07-28T08:42:03.175Z,101346.84
2022-07-28T08:44:37.649Z,101345.72
2022-07-28T08:47:05.441Z,101338.22
2022-07-28T08:49:33.803Z,101341.78
2022-07-28T08:52:11.208Z,101343.03
2022-07-28T08:54:42.631Z,101341.09
2022-07-28T08:57:11.545Z,101339.84
2022-07-28T08:59:39.873Z,101336.38
2022-07-28T09:02:11.125Z,101346.38
2022-07-28T09:04:39.822Z,101346.59
2022-07-28T09:07:09.345Z,101334.88
2022-07-28T09:09:37.023Z,101325.25
2022-07-28T09:12:05.713Z,101335.44
2022-07-28T09:14:33.526Z,101326.94
2022-07-28T09:17:01.885Z,101327.28
2022-07-28T09:19:34.090Z,101330.28
2022-07-28T09:22:03.522Z,101326.94
2022-07-28T09:24:37.112Z,101331.88
2022-07-28T09:27:07.709Z,101334.00
2022-07-28T09:29:36.055Z,101332.44
2022-07-28T09:32:04.190Z,101332.28
2022-07-28T09:34:40.511Z,101328.44
2022-07-28T09:37:09.044Z,101334.00
2022-07-28T09:39:38.243Z,101330.53
2022-07-28T09:42:06.260Z,101319.50
2022-07-28T09:44:33.861Z,101331.88
2022-07-28T09:47:01.603Z,101324.72
2022-07-28T09:49:43.468Z,101340.13
2022-07-28T09:52:12.160Z,101326.09
2022-07-28T09:55:00.600Z,101337.22
2022-07-28T09:57:28.533Z,101333.91
2022-07-28T09:59:58.603Z,101330.00
2022-07-28T10:02:28.020Z,101329.69
2022-07-28T10:04:59.627Z,101329.25
2022-07-28T10:07:29.186Z,101334.13
2022-07-28T10:09:59.874Z,101325.47
2022-07-28T10:12:28.667Z,101320.91
2022-07-28T10:14:57.408Z,101321.50
2022-07-28T10:17:27.077Z,101320.13
2022-07-28T10:19:57.595Z,101317.75
2022-07-28T10:22:27.744Z,101315.19
2022-07-28T10:24:57.483Z,101318.41
2022-07-28T10:27:26.727Z,101313.75
2022-07-28T10:29:58.379Z,101311.25
2022-07-28T10:32:26.551Z,101312.91
2022-07-28T10:35:01.284Z,101293.25
2022-07-28T10:37:29.010Z,101294.47
2022-07-28T10:40:05.275Z,101293.16
2022-07-28T10:42:37.822Z,101288.13
2022-07-28T10:45:06.291Z,101286.97
2022-07-28T10:47:35.829Z,101291.28
2022-07-28T10:50:04.906Z,101287.38
2022-07-28T10:52:51.291Z,101289.44
2022-07-28T10:55:31.860Z,101290.47
2022-07-28T11:00:12.792Z,101296.13
2022-07-28T11:02:48.871Z,101286.22
2022-07-28T11:05:35.336Z,101274.00
2022-07-28T11:08:05.757Z,101284.00
2022-07-28T11:10:47.793Z,101282.28
2022-07-28T11:13:32.784Z,101275.88
2022-07-28T11:16:21.757Z,101266.94
2022-07-28T11:19:07.717Z,101278.13
2022-07-28T11:21:39.608Z,101280.25
2022-07-28T11:24:08.916Z,101270.41
2022-07-28T11:26:45.944Z,101278.91
2022-07-28T11:29:20.473Z,101259.31
2022-07-28T11:31:59.449Z,101263.28
2022-07-28T11:34:27.332Z,101260.25
2022-07-28T11:37:02.524Z,101267.72
2022-07-28T11:39:31.475Z,101251.28
2022-07-28T11:42:26.035Z,101253.00
2022-07-28T11:44:53.813Z,101253.13
2022-07-28T11:47:24.238Z,101259.13
2022-07-28T11:50:13.953Z,101249.22
2022-07-28T11:52:53.739Z,101235.69
2022-07-28T11:55:21.650Z,101232.75
2022-07-28T11:58:09.196Z,101245.66
2022-07-28T12:00:36.988Z,101252.00
2022-07-28T12:03:06.185Z,101230.75
2022-07-28T12:05:34.548Z,101242.53
2022-07-28T12:08:09.485Z,101240.59
2022-07-28T12:10:55.321Z,101244.53
2022-07-28T12:13:28.666Z,101244.44
2022-07-28T12:15:56.307Z,101242.94
2022-07-28T12:18:25.483Z,101242.50
2022-07-28T12:20:54.402Z,101232.50
2022-07-28T12:23:38.929Z,101231.34
2022-07-28T12:26:14.205Z,101222.34
2022-07-28T12:28:50.340Z,101225.41
2022-07-28T12:31:18.075Z,101221.03
2022-07-28T12:33:47.056Z,101216.56
2022-07-28T12:36:18.657Z,101205.88
2022-07-28T12:38:46.780Z,101199.19
2022-07-28T12:41:15.853Z,101200.44
2022-07-28T12:43:50.649Z,101204.59
2022-07-28T12:46:21.389Z,101204.59
2022-07-28T12:48:50.781Z,101199.50
2022-07-28T12:51:31.520Z,101208.50
2022-07-28T12:53:59.081Z,101196.06
2022-07-28T12:56:26.736Z,101199.06
2022-07-28T12:59:05.610Z,101186.00
2022-07-28T13:01:47.147Z,101195.38
2022-07-28T13:04:16.763Z,101198.38
2022-07-28T13:06:44.812Z,101199.47
2022-07-28T13:09:23.356Z,101193.13
2022-07-28T13:11:51.024Z,101181.19
2022-07-28T13:14:18.938Z,101181.00
2022-07-28T13:16:58.269Z,101187.06
2022-07-28T13:19:27.185Z,101182.56
2022-07-28T13:22:01.726Z,101179.44
2022-07-28T13:24:32.332Z,101190.34
2022-07-28T13:27:00.652Z,101190.34
2022-07-28T13:29:28.380Z,101184.25
2022-07-28T13:31:56.177Z,101183.09
2022-07-28T13:34:23.959Z,101185.34
2022-07-28T13:36:53.270Z,101176.81
2022-07-28T13:39:20.883Z,101179.28
2022-07-28T13:41:56.920Z,101174.84
2022-07-28T13:44:25.776Z,101177.09
2022-07-28T13:46:53.437Z,101161.03
2022-07-28T13:49:23.481Z,101174.38
2022-07-28T13:51:51.549Z,101166.22
2022-07-28T13:54:21.011Z,101169.13
2022-07-28T13:56:49.445Z,101159.13
2022-07-28T13:59:17.310Z,101166.22
2022-07-28T14:01:49.756Z,101165.78
2022-07-28T14:04:18.557Z,101148.00
2022-07-28T14:06:48.935Z,101153.34
2022-07-28T14:09:17.852Z,101148.53
2022-07-28T14:11:50.146Z,101144.31
2022-07-28T14:14:21.229Z,101143.28
2022-07-28T14:16:52.680Z,101144.59
2022-07-28T14:19:23.452Z,101158.00
2022-07-28T14:22:12.185Z,101151.63
2022-07-28T14:24:41.141Z,101148.56
2022-07-28T14:27:10.870Z,101142.06
2022-07-28T14:29:38.624Z,101139.78
2022-07-28T14:32:06.726Z,101138.09
2022-07-28T14:34:34.644Z,101137.13
2022-07-28T14:37:03.459Z,101133.91
2022-07-28T14:39:36.039Z,101134.16
2022-07-28T14:42:04.151Z,101134.09
2022-07-28T14:44:33.124Z,101129.34
2022-07-28T14:47:00.823Z,101119.91
2022-07-28T14:49:28.675Z,101122.31
2022-07-28T14:51:57.779Z,101118.53
2022-07-28T14:54:25.571Z,101122.44
2022-07-28T14:56:53.173Z,101113.00
2022-07-28T14:59:20.777Z,101117.22
2022-07-28T15:01:50.105Z,101115.50
2022-07-28T15:04:18.542Z,101112.72
2022-07-28T15:06:47.200Z,101108.75
2022-07-28T15:09:15.257Z,101115.41
2022-07-28T15:11:44.628Z,101110.03
2022-07-28T15:14:12.426Z,101104.63
2022-07-28T15:16:42.696Z,101107.47
2022-07-28T15:19:12.162Z,101100.53
2022-07-28T15:21:40.724Z,101099.41
2022-07-28T15:24:09.680Z,101099.03
2022-07-28T15:26:37.263Z,101103.13
2022-07-28T15:29:05.233Z,101107.47
2022-07-28T15:31:32.945Z,101119.44
2022-07-28T15:34:00.872Z,101106.09
2022-07-28T15:36:30.221Z,101106.34
2022-07-28T15:38:57.817Z,101107.66
2022-07-28T15:41:25.468Z,101102.59
2022-07-28T15:43:53.079Z,101097.44
2022-07-28T15:46:20.920Z,101096.03
2022-07-28T15:48:48.615Z,101092.97
2022-07-28T15:51:16.236Z,101090.28
2022-07-28T15:53:46.616Z,101094.66
2022-07-28T15:56:14.959Z,101088.47
2022-07-28T15:58:42.633Z,101083.09
2022-07-28T16:01:10.239Z,101086.09
2022-07-28T16:03:37.804Z,101088.59
2022-07-28T16:06:05.789Z,101077.59
2022-07-28T16:08:33.408Z,101083.94
2022-07-28T16:11:02.475Z,101079.16
2022-07-28T16:13:36.409Z,101077.47
2022-07-28T16:16:07.059Z,101074.22
2022-07-28T16:18:35.077Z,101076.34
2022-07-28T16:21:02.693Z,101083.09
2022-07-28T16:23:30.350Z,101087.06
2022-07-28T16:25:57.975Z,101077.88
2022-07-28T16:28:27.429Z,101079.13
2022-07-28T16:30:55.375Z,101079.91
2022-07-28T16:33:23.139Z,101082.44
2022-07-28T16:35:50.782Z,101083.38
2022-07-28T16:38:20.116Z,101084.19
2022-07-28T16:40:47.756Z,101084.19
2022-07-28T16:43:15.379Z,101075.53
2022-07-28T16:45:44.695Z,101071.81
2022-07-28T16:48:13.124Z,101067.56
2022-07-28T16:50:46.010Z,101072.09
2022-07-28T16:53:14.037Z,101069.81
2022-07-28T16:55:42.527Z,101071.13
2022-07-28T16:58:10.155Z,101067.31
2022-07-28T17:00:38.065Z,101077.69
2022-07-28T17:03:07.421Z,101068.25
2022-07-28T17:05:38.696Z,101073.22
2022-07-28T17:08:06.361Z,101064.50
2022-07-28T17:10:33.981Z,101067.25
2022-07-28T17:13:01.579Z,101080.00
2022-07-28T17:15:29.188Z,101073.47
2022-07-28T17:17:56.861Z,101068.28
2022-07-28T17:20:26.138Z,101066.16
2022-07-28T17:22:53.729Z,101066.72
2022-07-28T17:25:52.331Z,101070.38
2022-07-28T17:28:09.036Z,101077.56
2022-07-28T17:30:36.887Z,101068.34
2022-07-28T17:33:08.610Z,101075.94
2022-07-28T17:35:38.519Z,101078.47
2022-07-28T17:38:09.115Z,101071.91
2022-07-28T17:40:37.753Z,101067.78
2022-07-28T17:43:05.801Z,101068.31
2022-07-28T17:45:33.414Z,101067.16
2022-07-28T17:48:01.019Z,101067.63
2022-07-28T17:50:28.844Z,101063.50
2022-07-28T17:52:57.825Z,101069.69
2022-07-28T17:56:00.039Z,101067.47
2022-07-28T17:58:29.015Z,101061.84
2022-07-28T18:00:58.770Z,101058.97
2022-07-28T18:04:00.036Z,101062.09
2022-07-28T18:06:25.440Z,101057.78
2022-07-28T18:08:54.412Z,101057.16
2022-07-28T18:11:22.056Z,101057.38
2022-07-28T18:14:04.137Z,101059.91
2022-07-28T18:16:33.072Z,101061.00
2022-07-28T18:19:00.702Z,101061.53
2022-07-28T18:21:28.335Z,101060.09
2022-07-28T18:23:57.294Z,101059.19
2022-07-28T18:26:24.921Z,101062.13
2022-07-28T18:28:52.536Z,101066.59
2022-07-28T18:31:21.609Z,101062.59
2022-07-28T18:33:49.368Z,101059.34
2022-07-28T18:36:16.990Z,101070.56
2022-07-28T18:38:44.577Z,101064.47
2022-07-28T18:41:13.502Z,101063.66
2022-07-28T18:43:41.718Z,101063.31
2022-07-28T18:46:09.381Z,101069.31
2022-07-28T18:48:37.997Z,101067.03
2022-07-28T18:51:05.670Z,101068.25
2022-07-28T18:53:33.226Z,101079.69
2022-07-28T18:56:00.824Z,101082.66
2022-07-28T18:58:29.774Z,101076.47
2022-07-28T19:00:57.378Z,101076.59
2022-07-28T19:03:25.004Z,101079.28
2022-07-28T19:05:53.659Z,101080.00
2022-07-28T19:08:21.611Z,101080.50
2022-07-28T19:10:49.309Z,101080.63
2022-07-28T19:13:16.947Z,101077.38
2022-07-28T19:15:45.962Z,101078.78
2022-07-28T19:18:13.670Z,101076.38
2022-07-28T19:20:41.523Z,101087.50
2022-07-28T19:23:09.121Z,101082.44
2022-07-28T19:25:37.603Z,101094.28
2022-07-28T19:28:05.879Z,101093.81
2022-07-28T19:30:33.590Z,101098.16
2022-07-28T19:33:02.626Z,101102.88
2022-07-28T19:35:30.288Z,101097.78
2022-07-28T19:37:59.836Z,101102.50
2022-07-28T19:40:29.582Z,101101.50
2022-07-28T19:42:57.433Z,101097.47
2022-07-28T19:45:25.669Z,101111.13
2022-07-28T19:47:54.502Z,101104.31
2022-07-28T19:50:23.851Z,101107.19
2022-07-28T19:52:51.512Z,101112.88
2022-07-28T19:55:19.705Z,101107.91
2022-07-28T19:57:47.337Z,101112.13
2022-07-28T20:00:17.200Z,101115.25
2022-07-28T20:02:45.737Z,101118.28
2022-07-28T20:05:13.649Z,101116.81
2022-07-28T20:07:43.193Z,101123.09
2022-07-28T20:10:10.942Z,101122.59
2022-07-28T20:12:38.555Z,101125.34
2022-07-28T20:15:06.838Z,101134.41
2022-07-28T20:17:39.544Z,101141.03
2022-07-28T20:20:08.783Z,101144.78
2022-07-28T20:22:37.352Z,101139.41
2022-07-28T20:25:09.371Z,101152.06
2022-07-28T20:27:40.031Z,101144.44
2022-07-28T20:30:09.570Z,101142.91
2022-07-28T20:32:37.836Z,101144.84
2022-07-28T20:35:06.039Z,101141.44
2022-07-28T20:37:36.504Z,101148.06
2022-07-28T20:40:08.013Z,101150.31
2022-07-28T20:42:35.952Z,101151.66
2022-07-28T20:45:04.412Z,101157.22
2022-07-28T20:47:32.707Z,101147.00
2022-07-28T20:50:00.360Z,101151.38
2022-07-28T20:52:27.937Z,101149.13
2022-07-28T20:54:55.986Z,101145.75
2022-07-28T20:57:24.986Z,101150.53
2022-07-28T20:59:52.560Z,101156.59
2022-07-28T21:02:20.555Z,101159.16
2022-07-28T21:04:50.422Z,101164.22
2022-07-28T21:08:00.801Z,101166.25
2022-07-28T21:10:07.417Z,101172.00
2022-07-28T21:12:37.052Z,101166.88
2022-07-28T21:15:04.991Z,101168.03
2022-07-28T21:17:32.601Z,101173.03
2022-07-28T21:20:00.269Z,101169.09
2022-07-28T21:22:27.867Z,101179.72
2022-07-28T21:24:55.970Z,101176.72
2022-07-28T21:27:24.186Z,101173.53
2022-07-28T21:32:21.794Z,101172.44
2022-07-28T21:34:49.426Z,101182.44
2022-07-28T21:37:17.012Z,101182.81
2022-07-28T21:39:44.572Z,101187.16
2022-07-28T21:42:12.155Z,101184.78
2022-07-28T21:44:39.793Z,101182.13
2022-07-28T21:47:08.770Z,101178.94
2022-07-28T21:49:36.382Z,101182.53
2022-07-28T21:52:04.051Z,101186.53
2022-07-28T21:54:31.732Z,101187.78
2022-07-28T21:56:59.356Z,101190.56
2022-07-28T21:59:27.100Z,101188.94
2022-07-28T22:01:55.208Z,101186.59
2022-07-28T22:04:24.299Z,101177.22
2022-07-28T22:06:53.412Z,101180.94
2022-07-28T22:09:21.108Z,101174.78
2022-07-28T22:11:48.728Z,101182.84
2022-07-28T22:14:16.935Z,101177.63
2022-07-28T22:16:44.850Z,101173.28
2022-07-28T22:19:12.778Z,101176.03
2022-07-28T22:21:41.752Z,101184.09
2022-07-28T22:24:09.802Z,101188.72
2022-07-28T22:26:37.458Z,101180.13
2022-07-28T22:29:05.072Z,101184.00
2022-07-28T22:31:32.739Z,101178.06
2022-07-28T22:34:00.327Z,101168.28
2022-07-28T22:36:27.920Z,101182.66
2022-07-28T22:38:56.901Z,101175.66
2022-07-28T22:41:24.581Z,101170.56
2022-07-28T22:43:52.261Z,101172.44
2022-07-28T22:46:19.886Z,101170.00
2022-07-28T22:48:47.581Z,101177.19
2022-07-28T22:51:16.089Z,101176.63
2022-07-28T22:53:43.643Z,101176.06
2022-07-28T22:56:24.681Z,101170.22
2022-07-28T22:58:52.418Z,101173.81
2022-07-28T23:01:20.180Z,101170.22
2022-07-28T23:03:48.062Z,101170.41
2022-07-28T23:06:15.838Z,101172.50
2022-07-28T23:08:43.492Z,101167.28
2022-07-28T23:11:12.519Z,101172.69
2022-07-28T23:13:40.898Z,101170.78
2022-07-28T23:16:09.161Z,101161.22
2022-07-28T23:18:36.945Z,101168.22
2022-07-28T23:21:05.328Z,101160.19
2022-07-28T23:23:33.051Z,101170.13
2022-07-28T23:26:00.797Z,101165.66
2022-07-28T23:28:30.016Z,101170.13
2022-07-28T23:30:57.954Z,101163.78
2022-07-28T23:33:55.696Z,101172.00
2022-07-28T23:36:16.929Z,101171.16
2022-07-28T23:38:54.114Z,101165.19
2022-07-28T23:41:21.806Z,101170.59
2022-07-28T23:43:50.922Z,101165.47
2022-07-28T23:46:18.740Z,101173.59
2022-07-28T23:48:46.516Z,101163.00
2022-07-28T23:51:14.954Z,101163.94
2022-07-28T23:53:42.669Z,101161.28
2022-07-28T23:56:10.985Z,101164.22
2022-07-28T23:58:38.698Z,101160.63
